createdAt,value
2018-12-04T00:01:47.402Z,6.70
2018-12-04T00:04:15.871Z,7.60
2018-12-04T00:06:44.342Z,7.12
2018-12-04T00:09:12.797Z,6.83
2018-12-04T00:11:41.427Z,5.37
2018-12-04T00:14:10.367Z,5.93
2018-12-04T00:16:38.890Z,6.13
2018-12-04T00:19:07.375Z,5.90
2018-12-04T00:21:35.831Z,6.57
2018-12-04T00:24:04.351Z,5.13
2018-12-04T00:26:32.937Z,6.00
2018-12-04T00:29:01.454Z,6.17
2018-12-04T00:31:32.871Z,6.17
2018-12-04T00:34:01.386Z,6.70
2018-12-04T00:36:30.045Z,6.70
2018-12-04T00:39:01.789Z,5.50
2018-12-04T00:41:29.301Z,4.57
2018-12-04T00:43:57.835Z,3.53
2018-12-04T00:46:26.366Z,3.67
2018-12-04T00:48:54.911Z,2.63
2018-12-04T00:51:23.371Z,2.60
2018-12-04T00:53:51.815Z,2.47
2018-12-04T00:56:20.327Z,1.70
2018-12-04T00:58:48.821Z,1.90
2018-12-04T01:01:17.311Z,2.20
2018-12-04T01:03:45.767Z,1.80
2018-12-04T01:06:14.350Z,2.47
2018-12-04T01:08:42.863Z,1.77
2018-12-04T01:11:11.354Z,2.10
2018-12-04T01:13:39.817Z,1.93
2018-12-04T01:16:08.303Z,2.30
2018-12-04T01:18:36.754Z,1.70
2018-12-04T01:21:06.351Z,1.50
2018-12-04T01:23:34.890Z,1.43
2018-12-04T01:26:03.344Z,1.37
2018-12-04T01:28:31.813Z,2.13
2018-12-04T01:31:00.261Z,1.73
2018-12-04T01:33:28.731Z,2.20
2018-12-04T01:35:57.174Z,1.90
2018-12-04T01:38:25.671Z,1.50
2018-12-04T01:40:54.154Z,1.53
2018-12-04T01:43:22.615Z,1.10
2018-12-04T01:45:51.042Z,2.00
2018-12-04T01:48:19.499Z,1.70
2018-12-04T01:50:48.018Z,1.63
2018-12-04T01:53:16.494Z,1.63
2018-12-04T01:55:44.974Z,1.37
2018-12-04T01:58:13.485Z,1.90
2018-12-04T02:00:41.950Z,1.70
2018-12-04T02:03:10.588Z,2.53
2018-12-04T02:05:39.821Z,2.33
2018-12-04T02:08:08.296Z,2.20
2018-12-04T02:10:42.683Z,2.03
2018-12-04T02:13:12.181Z,1.90
2018-12-04T02:15:40.597Z,1.70
2018-12-04T02:18:09.032Z,1.70
2018-12-04T02:20:37.446Z,1.93
2018-12-04T02:23:05.908Z,1.63
2018-12-04T02:25:34.436Z,1.73
2018-12-04T02:28:02.921Z,1.87
2018-12-04T02:30:31.382Z,1.70
2018-12-04T02:33:00.804Z,1.63
2018-12-04T02:35:29.248Z,2.30
2018-12-04T02:37:58.366Z,2.30
2018-12-04T02:40:26.827Z,2.00
2018-12-04T02:42:55.304Z,1.90
2018-12-04T02:45:23.775Z,1.70
2018-12-04T02:47:52.228Z,1.93
2018-12-04T02:50:20.738Z,2.10
2018-12-04T02:52:49.199Z,1.70
2018-12-04T02:55:17.647Z,2.07
2018-12-04T02:57:46.103Z,2.43
2018-12-04T03:00:14.604Z,2.07
2018-12-04T03:02:43.059Z,2.30
2018-12-04T03:05:11.513Z,2.30
2018-12-04T03:07:39.986Z,1.80
2018-12-04T03:10:08.462Z,1.63
2018-12-04T03:12:36.892Z,2.03
2018-12-04T03:15:05.476Z,1.60
2018-12-04T03:17:33.957Z,1.67
2018-12-04T03:20:02.549Z,1.80
2018-12-04T03:22:31.030Z,2.27
2018-12-04T03:24:59.536Z,2.30
2018-12-04T03:27:28.019Z,2.00
2018-12-04T03:29:56.530Z,2.03
2018-12-04T03:32:24.993Z,2.13
2018-12-04T03:34:53.426Z,1.90
2018-12-04T03:37:21.892Z,2.13
2018-12-04T03:39:50.371Z,1.90
2018-12-04T03:42:18.861Z,2.10
2018-12-04T03:44:47.298Z,1.63
2018-12-04T03:47:15.895Z,2.53
2018-12-04T03:49:44.413Z,2.13
2018-12-04T03:52:12.864Z,1.70
2018-12-04T03:54:41.313Z,1.87
2018-12-04T03:57:09.840Z,2.07
2018-12-04T03:59:38.316Z,2.13
2018-12-04T04:02:06.849Z,2.53
2018-12-04T04:04:35.307Z,2.57
2018-12-04T04:07:03.860Z,2.70
2018-12-04T04:09:32.428Z,2.70
2018-12-04T04:12:00.889Z,2.63
2018-12-04T04:14:29.374Z,2.43
2018-12-04T04:16:57.881Z,2.23
2018-12-04T04:19:26.374Z,2.37
2018-12-04T04:21:54.846Z,2.00
2018-12-04T04:24:23.292Z,2.27
2018-12-04T04:26:52.109Z,3.93
2018-12-04T04:29:20.559Z,2.20
2018-12-04T04:31:49.000Z,2.70
2018-12-04T04:34:17.474Z,2.97
2018-12-04T04:36:45.965Z,2.40
2018-12-04T04:39:14.381Z,3.00
2018-12-04T04:41:42.850Z,3.23
2018-12-04T04:44:11.290Z,2.87
2018-12-04T04:46:39.731Z,2.83
2018-12-04T04:49:08.232Z,3.03
2018-12-04T04:52:15.749Z,3.03
2018-12-04T04:54:44.169Z,2.97
2018-12-04T04:57:12.603Z,2.43
2018-12-04T04:59:41.057Z,2.07
2018-12-04T05:02:09.611Z,2.50
2018-12-04T05:04:38.047Z,2.27
2018-12-04T05:07:06.554Z,2.50
2018-12-04T05:09:34.973Z,2.80
2018-12-04T05:12:03.527Z,2.20
2018-12-04T05:14:31.932Z,2.80
2018-12-04T05:17:00.367Z,2.33
2018-12-04T05:19:28.783Z,3.27
2018-12-04T05:21:57.234Z,2.50
2018-12-04T05:24:25.654Z,2.40
2018-12-04T05:26:54.183Z,2.93
2018-12-04T05:29:22.606Z,2.50
2018-12-04T05:31:51.144Z,2.70
2018-12-04T05:34:19.586Z,2.80
2018-12-04T05:36:48.330Z,2.53
2018-12-04T05:39:16.832Z,3.13
2018-12-04T05:41:45.297Z,2.87
2018-12-04T05:44:13.759Z,2.23
2018-12-04T05:46:42.205Z,2.27
2018-12-04T05:49:10.713Z,4.80
2018-12-04T05:51:39.222Z,2.47
2018-12-04T05:54:13.769Z,2.13
2018-12-04T05:56:43.001Z,2.60
2018-12-04T05:59:11.717Z,2.43
2018-12-04T06:01:40.481Z,2.67
2018-12-04T06:04:08.955Z,2.50
2018-12-04T06:06:37.395Z,2.50
2018-12-04T06:09:10.301Z,3.73
2018-12-04T06:11:38.706Z,2.53
2018-12-04T06:14:07.224Z,2.97
2018-12-04T06:16:35.653Z,2.50
2018-12-04T06:19:04.379Z,2.60
2018-12-04T06:21:32.774Z,2.60
2018-12-04T06:24:01.226Z,2.53
2018-12-04T06:26:29.686Z,2.60
2018-12-04T06:28:58.183Z,2.50
2018-12-04T06:31:26.692Z,2.60
2018-12-04T06:33:55.151Z,2.43
2018-12-04T06:36:23.734Z,2.47
2018-12-04T06:38:52.206Z,3.13
2018-12-04T06:41:20.662Z,3.00
2018-12-04T06:43:49.117Z,2.53
2018-12-04T06:46:17.560Z,2.75
2018-12-04T06:48:45.993Z,2.50
2018-12-04T06:51:14.398Z,3.23
2018-12-04T06:53:42.872Z,2.77
2018-12-04T06:56:11.328Z,2.60
2018-12-04T06:58:39.742Z,2.23
2018-12-04T07:01:08.176Z,2.93
2018-12-04T07:03:36.599Z,2.70
2018-12-04T07:06:04.999Z,2.13
2018-12-04T07:08:33.428Z,2.40
2018-12-04T07:11:02.511Z,2.20
2018-12-04T07:13:31.060Z,2.73
2018-12-04T07:15:59.475Z,2.03
2018-12-04T07:18:27.864Z,2.00
2018-12-04T07:20:56.327Z,2.17
2018-12-04T07:23:24.787Z,2.40
2018-12-04T07:25:53.223Z,2.97
2018-12-04T07:28:21.629Z,2.67
2018-12-04T07:30:50.074Z,1.83
2018-12-04T07:33:18.486Z,1.73
2018-12-04T07:35:46.909Z,1.70
2018-12-04T07:38:15.339Z,2.03
2018-12-04T07:40:43.867Z,2.10
2018-12-04T07:43:12.293Z,2.63
2018-12-04T07:45:40.735Z,1.83
2018-12-04T07:48:09.179Z,2.00
2018-12-04T07:50:37.592Z,2.00
2018-12-04T07:53:05.985Z,2.03
2018-12-04T07:55:34.386Z,2.50
2018-12-04T07:58:02.803Z,2.10
2018-12-04T08:00:31.260Z,4.50
2018-12-04T08:02:59.666Z,2.87
2018-12-04T08:05:28.113Z,2.77
2018-12-04T08:07:56.586Z,3.00
2018-12-04T08:10:25.061Z,2.13
2018-12-04T08:12:53.452Z,2.20
2018-12-04T08:15:21.878Z,2.60
2018-12-04T08:17:50.804Z,2.83
2018-12-04T08:20:19.306Z,2.60
2018-12-04T08:22:47.763Z,2.53
2018-12-04T08:25:16.221Z,2.70
2018-12-04T08:27:44.637Z,2.33
2018-12-04T08:30:13.064Z,2.57
2018-12-04T08:32:41.455Z,2.63
2018-12-04T08:35:10.923Z,2.90
2018-12-04T08:37:39.319Z,3.33
2018-12-04T08:40:08.472Z,3.00
2018-12-04T08:42:36.867Z,3.73
2018-12-04T08:45:07.123Z,3.40
2018-12-04T08:47:35.534Z,3.60
2018-12-04T08:50:04.762Z,2.30
2018-12-04T08:52:33.178Z,2.83
2018-12-04T08:55:01.625Z,2.83
2018-12-04T08:57:30.047Z,4.90
2018-12-04T08:59:58.443Z,2.87
2018-12-04T09:02:27.002Z,2.40
2018-12-04T09:04:55.521Z,2.30
2018-12-04T09:07:23.946Z,2.20
2018-12-04T09:09:52.350Z,2.10
2018-12-04T09:12:20.796Z,2.03
2018-12-04T09:14:49.208Z,2.00
2018-12-04T09:17:17.649Z,2.63
2018-12-04T09:19:46.075Z,2.37
2018-12-04T09:22:16.057Z,2.57
2018-12-04T09:24:44.726Z,2.20
2018-12-04T09:27:13.420Z,3.30
2018-12-04T09:29:41.993Z,2.60
2018-12-04T09:32:10.498Z,2.50
2018-12-04T09:34:38.923Z,2.73
2018-12-04T09:37:07.375Z,2.20
2018-12-04T09:39:36.014Z,2.47
2018-12-04T09:42:04.593Z,2.97
2018-12-04T09:44:33.006Z,3.30
2018-12-04T09:47:01.434Z,2.60
2018-12-04T09:49:29.917Z,2.63
2018-12-04T09:51:58.358Z,1.83
2018-12-04T09:54:26.799Z,2.63
2018-12-04T09:56:55.556Z,2.30
2018-12-04T09:59:23.970Z,2.13
2018-12-04T10:01:52.463Z,2.17
2018-12-04T10:04:20.882Z,2.73
2018-12-04T10:06:49.419Z,1.90
2018-12-04T10:09:17.879Z,2.23
2018-12-04T10:11:46.298Z,2.30
2018-12-04T10:14:14.714Z,2.67
2018-12-04T10:16:43.247Z,2.20
2018-12-04T10:19:11.658Z,2.23
2018-12-04T10:21:40.058Z,2.37
2018-12-04T10:24:08.478Z,2.30
2018-12-04T10:26:37.274Z,2.37
2018-12-04T10:29:06.542Z,2.57
2018-12-04T10:31:34.979Z,2.30
2018-12-04T10:34:03.724Z,2.73
2018-12-04T10:36:32.181Z,2.33
2018-12-04T10:39:00.790Z,2.30
2018-12-04T10:41:29.241Z,2.60
2018-12-04T10:43:57.691Z,3.23
2018-12-04T10:46:26.085Z,3.13
2018-12-04T10:48:54.647Z,2.87
2018-12-04T10:51:23.051Z,2.87
2018-12-04T10:53:51.486Z,2.60
2018-12-04T10:56:20.424Z,2.90
2018-12-04T10:58:48.868Z,3.47
2018-12-04T11:01:22.370Z,2.93
2018-12-04T11:03:50.958Z,2.83
2018-12-04T11:06:19.438Z,3.03
2018-12-04T11:08:47.969Z,3.03
2018-12-04T11:11:16.635Z,2.83
2018-12-04T11:13:45.233Z,3.73
2018-12-04T11:16:13.642Z,3.47
2018-12-04T11:18:42.818Z,3.10
2018-12-04T11:21:11.387Z,4.03
2018-12-04T11:23:39.828Z,3.13
2018-12-04T11:26:08.260Z,2.80
2018-12-04T11:28:37.219Z,3.50
2018-12-04T11:31:05.641Z,3.30
2018-12-04T11:33:34.106Z,3.23
2018-12-04T11:36:05.174Z,3.17
2018-12-04T11:38:33.631Z,3.43
2018-12-04T11:41:02.073Z,3.63
2018-12-04T11:43:30.524Z,3.50
2018-12-04T11:45:58.944Z,2.27
2018-12-04T11:48:27.385Z,3.33
2018-12-04T11:51:00.211Z,3.50
2018-12-04T11:53:26.314Z,2.40
2018-12-04T11:56:19.273Z,3.17
2018-12-04T11:59:15.286Z,3.73
2018-12-04T12:01:50.363Z,3.70
2018-12-04T12:04:23.224Z,3.40
2018-12-04T12:06:53.306Z,3.30
2018-12-04T12:09:21.824Z,3.40
2018-12-04T12:11:55.454Z,3.80
2018-12-04T12:14:27.593Z,3.97
2018-12-04T12:17:05.684Z,3.90
2018-12-04T12:19:49.793Z,4.33
2018-12-04T12:22:20.512Z,4.07
2018-12-04T12:25:02.787Z,3.90
2018-12-04T12:27:34.219Z,4.07
2018-12-04T12:30:06.570Z,4.13
2018-12-04T12:32:40.025Z,3.73
2018-12-04T12:35:09.111Z,3.40
2018-12-04T12:37:55.559Z,3.63
2018-12-04T12:40:32.771Z,3.10
2018-12-04T12:43:09.225Z,2.40
2018-12-04T12:45:37.787Z,2.87
2018-12-04T12:48:13.044Z,2.87
2018-12-04T12:50:41.887Z,3.30
2018-12-04T12:53:22.883Z,2.30
2018-12-04T12:56:12.872Z,2.87
2018-12-04T12:58:54.793Z,2.57
2018-12-04T13:01:37.205Z,2.27
2018-12-04T13:07:09.802Z,2.10
2018-12-04T13:15:20.202Z,2.40
2018-12-04T13:17:57.879Z,2.53
2018-12-04T13:20:43.791Z,2.40
2018-12-04T13:23:12.234Z,2.17
2018-12-04T13:25:40.908Z,2.30
2018-12-04T13:28:09.391Z,2.83
2018-12-04T13:33:25.823Z,2.23
2018-12-04T13:36:03.645Z,2.13
2018-12-04T13:38:56.668Z,2.30
2018-12-04T13:41:30.702Z,2.63
2018-12-04T13:44:08.468Z,2.40
2018-12-04T13:46:37.039Z,2.50
2018-12-04T13:49:05.553Z,2.90
2018-12-04T13:51:34.067Z,2.70
2018-12-04T13:54:31.258Z,2.17
2018-12-04T13:57:08.254Z,1.97
2018-12-04T13:59:44.140Z,2.60
2018-12-04T14:02:18.819Z,2.60
2018-12-04T14:04:47.214Z,2.20
2018-12-04T14:07:21.185Z,2.83
2018-12-04T14:09:50.559Z,2.33
2018-12-04T14:12:19.067Z,2.50
2018-12-04T14:14:47.497Z,2.83
2018-12-04T14:17:16.818Z,1.93
2018-12-04T14:19:45.378Z,2.47
2018-12-04T14:22:16.308Z,2.53
2018-12-04T14:25:00.435Z,2.67
2018-12-04T14:27:59.982Z,2.30
2018-12-04T14:30:44.279Z,2.53
2018-12-04T14:33:14.349Z,2.77
2018-12-04T14:35:54.329Z,3.00
2018-12-04T14:38:31.961Z,2.40
2018-12-04T14:41:00.701Z,2.50
2018-12-04T14:43:29.735Z,2.40
2018-12-04T14:45:58.767Z,2.57
2018-12-04T14:48:27.329Z,2.60
2018-12-04T14:50:55.891Z,2.83
2018-12-04T14:53:24.656Z,3.00
2018-12-04T14:55:53.172Z,2.80
2018-12-04T14:58:21.614Z,2.90
2018-12-04T15:01:09.964Z,2.87
2018-12-04T15:03:38.416Z,2.53
2018-12-04T15:06:06.961Z,3.30
2018-12-04T15:08:36.573Z,3.53
2018-12-04T15:11:05.281Z,3.00
2018-12-04T15:13:46.822Z,3.30
2018-12-04T15:16:25.460Z,4.37
2018-12-04T15:19:02.888Z,3.07
2018-12-04T15:21:41.318Z,3.97
2018-12-04T15:24:21.757Z,3.70
2018-12-04T15:26:54.434Z,4.20
2018-12-04T15:29:23.019Z,5.50
2018-12-04T15:31:56.955Z,6.27
2018-12-04T15:34:25.568Z,6.53
2018-12-04T15:40:19.070Z,6.90
2018-12-04T15:42:47.650Z,6.30
2018-12-04T15:45:16.216Z,4.23
2018-12-04T15:47:52.443Z,4.87
2018-12-04T15:50:20.987Z,4.30
2018-12-04T15:52:49.550Z,4.07
2018-12-04T15:55:43.175Z,5.40
2018-12-04T15:58:14.771Z,5.93
2018-12-04T16:00:49.396Z,9.17
2018-12-04T16:03:57.547Z,10.20
2018-12-04T16:09:24.982Z,8.17
2018-12-04T16:11:53.457Z,7.03
2018-12-04T16:14:21.904Z,7.20
2018-12-04T16:16:50.342Z,9.40
2018-12-04T16:19:18.799Z,8.10
2018-12-04T16:21:52.798Z,8.03
2018-12-04T16:24:22.045Z,8.50
2018-12-04T16:26:50.488Z,8.90
2018-12-04T16:29:33.234Z,11.43
2018-12-04T16:32:01.758Z,13.10
2018-12-04T16:34:32.735Z,13.50
2018-12-04T16:37:01.338Z,12.27
2018-12-04T16:42:52.766Z,9.47
2018-12-04T16:45:21.308Z,8.93
2018-12-04T16:47:49.748Z,9.00
2018-12-04T16:50:18.254Z,8.47
2018-12-04T16:52:46.688Z,6.37
2018-12-04T16:55:15.097Z,6.70
2018-12-04T16:57:43.517Z,6.83
2018-12-04T17:00:12.097Z,6.97
2018-12-04T17:02:40.557Z,6.83
2018-12-04T17:05:09.220Z,7.10
2018-12-04T17:07:37.663Z,6.87
2018-12-04T17:10:07.616Z,7.93
2018-12-04T17:12:36.038Z,6.80
2018-12-04T17:15:05.358Z,7.67
2018-12-04T17:17:33.819Z,13.20
2018-12-04T17:20:02.258Z,9.37
2018-12-04T17:22:30.739Z,9.47
2018-12-04T17:24:59.159Z,9.13
2018-12-04T17:27:27.647Z,11.13
2018-12-04T17:29:56.188Z,11.33
2018-12-04T17:32:24.696Z,11.50
2018-12-04T17:34:53.247Z,13.03
2018-12-04T17:37:21.729Z,12.50
2018-12-04T17:39:50.290Z,13.57
2018-12-04T17:42:18.707Z,13.10
2018-12-04T17:44:47.206Z,12.77
2018-12-04T17:47:15.850Z,12.17
2018-12-04T17:49:44.643Z,13.77
2018-12-04T17:52:13.057Z,11.40
2018-12-04T17:54:41.504Z,11.33
2018-12-04T17:57:09.952Z,14.37
2018-12-04T17:59:38.577Z,15.30
2018-12-04T18:02:07.144Z,15.17
2018-12-04T18:04:35.565Z,14.23
2018-12-04T18:07:04.002Z,13.53
2018-12-04T18:09:32.443Z,12.03
2018-12-04T18:12:00.918Z,10.47
2018-12-04T18:14:29.517Z,12.47
2018-12-04T18:16:57.959Z,12.17
2018-12-04T18:19:26.388Z,11.83
2018-12-04T18:21:54.798Z,11.20
2018-12-04T18:24:23.235Z,11.70
2018-12-04T18:26:51.778Z,10.90
2018-12-04T18:29:20.361Z,10.00
2018-12-04T18:31:48.810Z,7.17
2018-12-04T18:34:17.259Z,8.17
2018-12-04T18:36:45.715Z,8.43
2018-12-04T18:39:14.241Z,9.40
2018-12-04T18:41:42.880Z,8.87
2018-12-04T18:44:12.160Z,8.87
2018-12-04T18:46:40.624Z,9.53
2018-12-04T18:49:09.159Z,8.57
2018-12-04T18:51:37.612Z,9.30
2018-12-04T18:54:06.213Z,8.90
2018-12-04T18:56:34.753Z,8.03
2018-12-04T18:59:03.416Z,8.80
2018-12-04T19:01:31.922Z,8.23
2018-12-04T19:04:00.403Z,10.17
2018-12-04T19:06:28.860Z,8.40
2018-12-04T19:08:57.602Z,10.40
2018-12-04T19:11:26.212Z,8.40
2018-12-04T19:13:54.796Z,10.30
2018-12-04T19:16:24.043Z,10.83
2018-12-04T19:18:52.611Z,9.90
2018-12-04T19:21:22.338Z,8.93
2018-12-04T19:23:51.395Z,9.70
2018-12-04T19:26:19.834Z,11.27
2018-12-04T19:28:51.382Z,12.23
2018-12-04T19:31:20.481Z,11.67
2018-12-04T19:33:48.951Z,14.20
2018-12-04T19:36:17.398Z,11.83
2018-12-04T19:38:45.905Z,13.73
2018-12-04T19:41:14.500Z,12.70
2018-12-04T19:43:43.031Z,13.63
2018-12-04T19:46:11.494Z,14.00
2018-12-04T19:48:39.935Z,12.93
2018-12-04T19:51:08.378Z,11.47
2018-12-04T19:53:37.106Z,13.73
2018-12-04T19:56:08.271Z,13.27
2018-12-04T19:58:36.790Z,13.63
2018-12-04T20:01:05.250Z,14.87
2018-12-04T20:03:33.675Z,14.00
2018-12-04T20:06:02.270Z,14.53
2018-12-04T20:08:35.858Z,13.30
2018-12-04T20:11:04.431Z,15.40
2018-12-04T20:13:32.959Z,14.40
2018-12-04T20:16:01.608Z,12.90
2018-12-04T20:18:30.179Z,10.20
2018-12-04T20:20:58.761Z,10.33
2018-12-04T20:23:27.285Z,13.93
2018-12-04T20:25:56.684Z,14.70
2018-12-04T20:28:25.185Z,12.00
2018-12-04T20:30:53.726Z,10.17
2018-12-04T20:33:22.219Z,11.67
2018-12-04T20:35:50.792Z,12.83
2018-12-04T20:38:19.224Z,11.07
2018-12-04T20:40:47.734Z,10.37
2018-12-04T20:43:16.353Z,8.63
2018-12-04T20:45:44.840Z,12.97
2018-12-04T20:48:13.376Z,13.90
2018-12-04T20:50:41.893Z,13.67
2018-12-04T20:53:10.335Z,13.07
2018-12-04T20:55:38.955Z,11.73
2018-12-04T20:58:07.414Z,11.17
2018-12-04T21:00:35.942Z,10.17
2018-12-04T21:03:04.541Z,12.30
2018-12-04T21:05:33.308Z,12.90
2018-12-04T21:08:01.782Z,15.33
2018-12-04T21:10:30.255Z,13.60
2018-12-04T21:12:58.980Z,12.43
2018-12-04T21:15:27.701Z,13.00
2018-12-04T21:17:56.572Z,13.37
2018-12-04T21:20:25.207Z,13.17
2018-12-04T21:22:53.796Z,11.97
2018-12-04T21:25:22.259Z,13.87
2018-12-04T21:27:55.956Z,15.33
2018-12-04T21:30:29.670Z,15.70
2018-12-04T21:33:03.602Z,15.67
2018-12-04T21:35:37.450Z,12.87
2018-12-04T21:38:12.635Z,14.53
2018-12-04T21:40:46.500Z,13.60
2018-12-04T21:43:20.191Z,13.23
2018-12-04T21:45:53.958Z,14.20
2018-12-04T21:48:26.662Z,14.60
2018-12-04T21:50:55.286Z,10.90
2018-12-04T21:53:23.849Z,12.33
2018-12-04T21:55:52.376Z,11.73
2018-12-04T21:58:20.903Z,11.00
2018-12-04T22:00:49.431Z,13.77
2018-12-04T22:03:17.937Z,13.33
2018-12-04T22:05:46.489Z,13.37
2018-12-04T22:08:15.057Z,13.97
2018-12-04T22:10:43.482Z,12.43
2018-12-04T22:13:12.879Z,11.37
2018-12-04T22:15:41.362Z,12.30
2018-12-04T22:18:09.883Z,11.93
2018-12-04T22:20:38.367Z,10.87
2018-12-04T22:23:08.087Z,12.17
2018-12-04T22:25:36.487Z,10.37
2018-12-04T22:28:05.102Z,12.10
2018-12-04T22:30:34.377Z,12.33
2018-12-04T22:33:02.941Z,10.53
2018-12-04T22:35:34.443Z,11.40
2018-12-04T22:38:02.867Z,9.43
2018-12-04T22:40:32.811Z,9.67
2018-12-04T22:43:01.453Z,10.83
2018-12-04T22:45:29.916Z,10.60
2018-12-04T22:47:58.477Z,10.93
2018-12-04T22:50:27.167Z,10.77
2018-12-04T22:52:55.678Z,11.13
2018-12-04T22:55:25.194Z,11.20
2018-12-04T22:57:54.682Z,10.90
2018-12-04T23:00:35.495Z,10.03
2018-12-04T23:03:04.820Z,10.53
2018-12-04T23:05:33.354Z,9.20
2018-12-04T23:08:03.405Z,9.40
2018-12-04T23:10:31.926Z,9.40
2018-12-04T23:13:00.404Z,9.67
2018-12-04T23:15:28.828Z,9.33
2018-12-04T23:17:57.273Z,9.57
2018-12-04T23:20:25.696Z,9.20
2018-12-04T23:22:54.247Z,10.33
2018-12-04T23:25:22.744Z,9.50
2018-12-04T23:27:51.193Z,9.50
2018-12-04T23:30:19.623Z,9.07
2018-12-04T23:32:48.127Z,9.90
2018-12-04T23:35:16.559Z,9.07
2018-12-04T23:37:45.503Z,9.90
2018-12-04T23:40:14.053Z,8.80
2018-12-04T23:42:42.550Z,9.27
2018-12-04T23:45:11.011Z,9.17
2018-12-04T23:47:39.451Z,9.30
2018-12-04T23:50:12.907Z,9.60
2018-12-04T23:52:41.333Z,10.03
2018-12-04T23:55:09.782Z,10.20
2018-12-04T23:57:38.649Z,9.83
